sensor_id;sensor_type;location;lat;lon;timestamp;pressure;altitude;pressure_sealevel;temperature;humidity
22605;BME280;11469;49.024;8.246;2023-02-03T00:00:37;101818.84;;;7.03;93.93
22605;BME280;11469;49.024;8.246;2023-02-03T00:03:03;101817.78;;;6.98;93.97
22605;BME280;11469;49.024;8.246;2023-02-03T00:05:30;101811.69;;;6.96;94.45
22605;BME280;11469;49.024;8.246;2023-02-03T00:07:56;101805.81;;;6.98;94.35
22605;BME280;11469;49.024;8.246;2023-02-03T00:10:21;101813.88;;;6.99;94.67
22605;BME280;11469;49.024;8.246;2023-02-03T00:12:50;101818.91;;;6.97;95.05
22605;BME280;11469;49.024;8.246;2023-02-03T00:15:20;101809.94;;;7.01;94.50
22605;BME280;11469;49.024;8.246;2023-02-03T00:17:47;101812.66;;;7.06;94.75
22605;BME280;11469;49.024;8.246;2023-02-03T00:20:12;101799.94;;;6.99;94.77
22605;BME280;11469;49.024;8.246;2023-02-03T00:22:38;101797.44;;;6.98;95.31
22605;BME280;11469;49.024;8.246;2023-02-03T00:25:03;101803.75;;;7.04;94.94
22605;BME280;11469;49.024;8.246;2023-02-03T00:27:29;101798.50;;;7.02;94.80
22605;BME280;11469;49.024;8.246;2023-02-03T00:29:54;101798.41;;;7.07;94.79
22605;BME280;11469;49.024;8.246;2023-02-03T00:32:20;101797.38;;;7.03;94.50
22605;BME280;11469;49.024;8.246;2023-02-03T00:34:45;101804.38;;;7.01;94.84
22605;BME280;11469;49.024;8.246;2023-02-03T00:37:11;101807.38;;;7.04;95.14
22605;BME280;11469;49.024;8.246;2023-02-03T00:39:37;101808.50;;;7.03;94.64
22605;BME280;11469;49.024;8.246;2023-02-03T00:42:04;101808.00;;;7.01;95.48
22605;BME280;11469;49.024;8.246;2023-02-03T00:44:29;101821.03;;;7.06;95.01
22605;BME280;11469;49.024;8.246;2023-02-03T00:46:55;101811.31;;;7.03;95.32
22605;BME280;11469;49.024;8.246;2023-02-03T00:49:20;101815.75;;;7.04;95.29
22605;BME280;11469;49.024;8.246;2023-02-03T00:51:46;101806.56;;;7.04;95.45
22605;BME280;11469;49.024;8.246;2023-02-03T00:54:11;101822.69;;;7.07;95.54
22605;BME280;11469;49.024;8.246;2023-02-03T00:56:38;101816.06;;;7.03;96.17
22605;BME280;11469;49.024;8.246;2023-02-03T00:59:03;101811.84;;;7.05;96.43
22605;BME280;11469;49.024;8.246;2023-02-03T01:01:29;101827.13;;;7.08;96.96
22605;BME280;11469;49.024;8.246;2023-02-03T01:03:55;101816.81;;;7.08;97.26
22605;BME280;11469;49.024;8.246;2023-02-03T01:06:21;101801.50;;;7.06;97.54
22605;BME280;11469;49.024;8.246;2023-02-03T01:08:47;101794.16;;;7.10;97.28
22605;BME280;11469;49.024;8.246;2023-02-03T01:11:16;101787.56;;;7.06;97.95
22605;BME280;11469;49.024;8.246;2023-02-03T01:13:42;101789.31;;;7.02;98.28
22605;BME280;11469;49.024;8.246;2023-02-03T01:16:09;101788.78;;;6.99;98.46
22605;BME280;11469;49.024;8.246;2023-02-03T01:18:35;101785.91;;;7.05;98.48
22605;BME280;11469;49.024;8.246;2023-02-03T01:21:08;101788.69;;;7.05;98.64
22605;BME280;11469;49.024;8.246;2023-02-03T01:23:35;101785.50;;;7.11;99.06
22605;BME280;11469;49.024;8.246;2023-02-03T01:26:06;101796.44;;;7.08;100.00
22605;BME280;11469;49.024;8.246;2023-02-03T01:28:32;101801.06;;;6.98;100.00
22605;BME280;11469;49.024;8.246;2023-02-03T01:31:10;101807.53;;;6.94;100.00
22605;BME280;11469;49.024;8.246;2023-02-03T01:33:37;101822.00;;;6.96;100.00
22605;BME280;11469;49.024;8.246;2023-02-03T01:36:08;101827.19;;;7.03;100.00
22605;BME280;11469;49.024;8.246;2023-02-03T01:38:35;101825.03;;;6.99;100.00
22605;BME280;11469;49.024;8.246;2023-02-03T01:41:01;101808.38;;;6.94;100.00
22605;BME280;11469;49.024;8.246;2023-02-03T01:43:32;101807.53;;;6.94;100.00
22605;BME280;11469;49.024;8.246;2023-02-03T01:46:00;101799.41;;;6.97;100.00
22605;BME280;11469;49.024;8.246;2023-02-03T01:48:27;101791.56;;;6.99;100.00
22605;BME280;11469;49.024;8.246;2023-02-03T01:50:53;101778.25;;;6.96;100.00
22605;BME280;11469;49.024;8.246;2023-02-03T01:53:19;101765.44;;;6.95;100.00
22605;BME280;11469;49.024;8.246;2023-02-03T01:55:47;101764.16;;;6.88;100.00
22605;BME280;11469;49.024;8.246;2023-02-03T01:58:23;101764.69;;;6.90;100.00
22605;BME280;11469;49.024;8.246;2023-02-03T02:00:51;101737.81;;;6.80;100.00
22605;BME280;11469;49.024;8.246;2023-02-03T02:03:19;101724.03;;;6.70;100.00
22605;BME280;11469;49.024;8.246;2023-02-03T02:05:50;101711.75;;;6.71;100.00
22605;BME280;11469;49.024;8.246;2023-02-03T02:08:19;101689.47;;;6.71;100.00
22605;BME280;11469;49.024;8.246;2023-02-03T02:10:48;101684.19;;;6.70;100.00
22605;BME280;11469;49.024;8.246;2023-02-03T02:13:14;101705.56;;;6.60;100.00
22605;BME280;11469;49.024;8.246;2023-02-03T02:37:56;101689.16;;;6.59;100.00
22605;BME280;11469;49.024;8.246;2023-02-03T02:40:48;101704.28;;;6.53;100.00
22605;BME280;11469;49.024;8.246;2023-02-03T02:46:23;101704.88;;;6.50;100.00
22605;BME280;11469;49.024;8.246;2023-02-03T02:48:58;101698.78;;;6.48;100.00
22605;BME280;11469;49.024;8.246;2023-02-03T02:51:28;101701.28;;;6.49;100.00
22605;BME280;11469;49.024;8.246;2023-02-03T02:53:58;101698.72;;;6.53;100.00
22605;BME280;11469;49.024;8.246;2023-02-03T02:56:26;101708.50;;;6.50;100.00
22605;BME280;11469;49.024;8.246;2023-02-03T02:58:53;101691.25;;;6.48;100.00
22605;BME280;11469;49.024;8.246;2023-02-03T03:01:20;101699.00;;;6.51;100.00
22605;BME280;11469;49.024;8.246;2023-02-03T03:03:46;101704.88;;;6.50;100.00
22605;BME280;11469;49.024;8.246;2023-02-03T03:06:21;101688.09;;;6.55;100.00
22605;BME280;11469;49.024;8.246;2023-02-03T03:11:17;101694.81;;;6.54;100.00
22605;BME280;11469;49.024;8.246;2023-02-03T03:13:49;101685.63;;;6.53;100.00
22605;BME280;11469;49.024;8.246;2023-02-03T03:16:17;101673.72;;;6.48;100.00
22605;BME280;11469;49.024;8.246;2023-02-03T03:18:48;101674.03;;;6.46;100.00
22605;BME280;11469;49.024;8.246;2023-02-03T03:21:20;101685.78;;;6.43;100.00
22605;BME280;11469;49.024;8.246;2023-02-03T03:23:50;101702.19;;;6.45;100.00
22605;BME280;11469;49.024;8.246;2023-02-03T03:31:14;101715.19;;;6.49;100.00
22605;BME280;11469;49.024;8.246;2023-02-03T03:33:40;101723.56;;;6.49;100.00
22605;BME280;11469;49.024;8.246;2023-02-03T03:36:18;101727.16;;;6.50;100.00
22605;BME280;11469;49.024;8.246;2023-02-03T03:38:56;101726.88;;;6.51;100.00
22605;BME280;11469;49.024;8.246;2023-02-03T03:41:31;101733.28;;;6.52;100.00
22605;BME280;11469;49.024;8.246;2023-02-03T03:44:03;101738.25;;;6.55;100.00
22605;BME280;11469;49.024;8.246;2023-02-03T03:46:36;101746.91;;;6.53;100.00
22605;BME280;11469;49.024;8.246;2023-02-03T03:49:06;101734.31;;;6.56;100.00
22605;BME280;11469;49.024;8.246;2023-02-03T03:51:43;101746.38;;;6.51;100.00
22605;BME280;11469;49.024;8.246;2023-02-03T03:54:13;101741.09;;;6.50;100.00
22605;BME280;11469;49.024;8.246;2023-02-03T03:56:46;101753.00;;;6.55;100.00
22605;BME280;11469;49.024;8.246;2023-02-03T03:59:18;101756.53;;;6.61;100.00
22605;BME280;11469;49.024;8.246;2023-02-03T04:01:46;101762.41;;;6.59;100.00
22605;BME280;11469;49.024;8.246;2023-02-03T04:04:13;101762.72;;;6.58;100.00
22605;BME280;11469;49.024;8.246;2023-02-03T04:06:40;101753.41;;;6.62;100.00
22605;BME280;11469;49.024;8.246;2023-02-03T04:09:06;101761.47;;;6.64;100.00
22605;BME280;11469;49.024;8.246;2023-02-03T04:11:31;101758.25;;;6.57;100.00
22605;BME280;11469;49.024;8.246;2023-02-03T04:14:15;101747.44;;;6.55;100.00
22605;BME280;11469;49.024;8.246;2023-02-03T04:16:40;101743.28;;;6.53;100.00
22605;BME280;11469;49.024;8.246;2023-02-03T04:19:05;101732.13;;;6.53;100.00
22605;BME280;11469;49.024;8.246;2023-02-03T04:21:31;101733.56;;;6.50;100.00
22605;BME280;11469;49.024;8.246;2023-02-03T04:23:56;101729.22;;;6.44;100.00
22605;BME280;11469;49.024;8.246;2023-02-03T04:26:22;101730.88;;;6.45;100.00
22605;BME280;11469;49.024;8.246;2023-02-03T04:28:47;101740.56;;;6.48;100.00
22605;BME280;11469;49.024;8.246;2023-02-03T04:31:12;101737.19;;;6.51;100.00
22605;BME280;11469;49.024;8.246;2023-02-03T04:33:38;101737.72;;;6.53;100.00
22605;BME280;11469;49.024;8.246;2023-02-03T04:36:03;101732.13;;;6.53;100.00
22605;BME280;11469;49.024;8.246;2023-02-03T04:38:29;101731.91;;;6.49;100.00
22605;BME280;11469;49.024;8.246;2023-02-03T04:40:54;101733.78;;;6.54;100.00
22605;BME280;11469;49.024;8.246;2023-02-03T04:43:19;101742.16;;;6.54;100.00
22605;BME280;11469;49.024;8.246;2023-02-03T04:45:45;101751.03;;;6.56;100.00
22605;BME280;11469;49.024;8.246;2023-02-03T04:48:10;101753.28;;;6.54;100.00
22605;BME280;11469;49.024;8.246;2023-02-03T04:50:35;101741.31;;;6.53;100.00
22605;BME280;11469;49.024;8.246;2023-02-03T04:53:01;101725.22;;;6.50;100.00
22605;BME280;11469;49.024;8.246;2023-02-03T04:55:27;101731.63;;;6.51;100.00
22605;BME280;11469;49.024;8.246;2023-02-03T04:57:56;101725.53;;;6.49;100.00
22605;BME280;11469;49.024;8.246;2023-02-03T05:00:22;101728.16;;;6.40;100.00
22605;BME280;11469;49.024;8.246;2023-02-03T05:02:47;101746.59;;;6.36;100.00
22605;BME280;11469;49.024;8.246;2023-02-03T05:05:13;101734.25;;;6.42;100.00
22605;BME280;11469;49.024;8.246;2023-02-03T05:07:38;101735.16;;;6.38;100.00
22605;BME280;11469;49.024;8.246;2023-02-03T05:10:04;101741.63;;;6.33;100.00
22605;BME280;11469;49.024;8.246;2023-02-03T05:12:29;101741.31;;;6.35;100.00
22605;BME280;11469;49.024;8.246;2023-02-03T05:14:55;101746.38;;;6.32;100.00
22605;BME280;11469;49.024;8.246;2023-02-03T05:17:20;101735.75;;;6.35;100.00
22605;BME280;11469;49.024;8.246;2023-02-03T05:19:45;101728.31;;;6.30;100.00
22605;BME280;11469;49.024;8.246;2023-02-03T05:22:11;101725.75;;;6.33;100.00
22605;BME280;11469;49.024;8.246;2023-02-03T05:24:36;101730.25;;;6.29;100.00
22605;BME280;11469;49.024;8.246;2023-02-03T05:27:02;101719.66;;;6.31;100.00
22605;BME280;11469;49.024;8.246;2023-02-03T05:29:27;101728.66;;;6.23;100.00
22605;BME280;11469;49.024;8.246;2023-02-03T05:31:53;101726.41;;;6.25;100.00
22605;BME280;11469;49.024;8.246;2023-02-03T05:34:18;101728.38;;;6.25;100.00
22605;BME280;11469;49.024;8.246;2023-02-03T05:36:43;101728.44;;;6.20;100.00
22605;BME280;11469;49.024;8.246;2023-02-03T05:39:09;101735.38;;;6.22;100.00
22605;BME280;11469;49.024;8.246;2023-02-03T05:41:34;101737.03;;;6.23;100.00
22605;BME280;11469;49.024;8.246;2023-02-03T05:44:23;101735.66;;;6.21;100.00
22605;BME280;11469;49.024;8.246;2023-02-03T05:46:51;101729.03;;;6.17;100.00
22605;BME280;11469;49.024;8.246;2023-02-03T05:49:17;101714.75;;;6.23;100.00
22605;BME280;11469;49.024;8.246;2023-02-03T05:51:44;101719.50;;;6.23;100.00
22605;BME280;11469;49.024;8.246;2023-02-03T05:54:09;101724.31;;;6.17;100.00
22605;BME280;11469;49.024;8.246;2023-02-03T05:56:35;101728.75;;;6.18;100.00
22605;BME280;11469;49.024;8.246;2023-02-03T05:59:01;101742.34;;;6.20;100.00
22605;BME280;11469;49.024;8.246;2023-02-03T06:01:26;101744.31;;;6.19;100.00
22605;BME280;11469;49.024;8.246;2023-02-03T06:03:51;101710.38;;;6.17;100.00
22605;BME280;11469;49.024;8.246;2023-02-03T06:06:17;101716.72;;;6.23;100.00
22605;BME280;11469;49.024;8.246;2023-02-03T06:08:43;101710.38;;;6.17;100.00
22605;BME280;11469;49.024;8.246;2023-02-03T06:11:09;101711.00;;;6.14;100.00
22605;BME280;11469;49.024;8.246;2023-02-03T06:13:34;101728.75;;;6.18;100.00
22605;BME280;11469;49.024;8.246;2023-02-03T06:16:00;101743.19;;;6.20;100.00
22605;BME280;11469;49.024;8.246;2023-02-03T06:18:26;101724.59;;;6.16;100.00
22605;BME280;11469;49.024;8.246;2023-02-03T06:20:51;101740.69;;;6.19;100.00
22605;BME280;11469;49.024;8.246;2023-02-03T06:23:17;101744.53;;;6.23;100.00
22605;BME280;11469;49.024;8.246;2023-02-03T06:25:44;101744.47;;;6.28;100.00
22605;BME280;11469;49.024;8.246;2023-02-03T06:28:09;101735.13;;;6.19;100.00
22605;BME280;11469;49.024;8.246;2023-02-03T06:30:35;101720.38;;;6.18;100.00
22605;BME280;11469;49.024;8.246;2023-02-03T06:33:00;101712.63;;;6.15;100.00
22605;BME280;11469;49.024;8.246;2023-02-03T06:35:26;101704.28;;;6.15;100.00
22605;BME280;11469;49.024;8.246;2023-02-03T06:37:51;101700.59;;;6.20;100.00
22605;BME280;11469;49.024;8.246;2023-02-03T06:40:17;101699.53;;;6.16;100.00
22605;BME280;11469;49.024;8.246;2023-02-03T06:42:46;101707.69;;;6.12;100.00
22605;BME280;11469;49.024;8.246;2023-02-03T06:45:13;101711.50;;;6.16;100.00
22605;BME280;11469;49.024;8.246;2023-02-03T06:47:42;101718.38;;;6.24;100.00
22605;BME280;11469;49.024;8.246;2023-02-03T06:50:09;101714.75;;;6.23;100.00
22605;BME280;11469;49.024;8.246;2023-02-03T06:52:35;101709.72;;;6.25;100.00
22605;BME280;11469;49.024;8.246;2023-02-03T06:55:02;101723.56;;;6.30;100.00
22605;BME280;11469;49.024;8.246;2023-02-03T06:57:28;101715.72;;;6.32;100.00
22605;BME280;11469;49.024;8.246;2023-02-03T06:59:53;101718.97;;;6.40;100.00
22605;BME280;11469;49.024;8.246;2023-02-03T07:02:19;101711.88;;;6.47;100.00
22605;BME280;11469;49.024;8.246;2023-02-03T07:04:44;101698.50;;;6.49;100.00
22605;BME280;11469;49.024;8.246;2023-02-03T07:07:11;101697.88;;;6.52;100.00
22605;BME280;11469;49.024;8.246;2023-02-03T07:09:37;101700.28;;;6.59;100.00
22605;BME280;11469;49.024;8.246;2023-02-03T07:12:03;101696.66;;;6.58;100.00
22605;BME280;11469;49.024;8.246;2023-02-03T07:14:29;101674.56;;;6.62;100.00
22605;BME280;11469;49.024;8.246;2023-02-03T07:16:55;101679.00;;;6.49;100.00
22605;BME280;11469;49.024;8.246;2023-02-03T07:19:20;101673.81;;;6.43;100.00
22605;BME280;11469;49.024;8.246;2023-02-03T07:21:46;101673.34;;;6.36;100.00
22605;BME280;11469;49.024;8.246;2023-02-03T07:24:11;101683.97;;;6.33;100.00
22605;BME280;11469;49.024;8.246;2023-02-03T07:26:37;101695.09;;;6.33;100.00
22605;BME280;11469;49.024;8.246;2023-02-03T07:29:03;101708.50;;;6.31;100.00
22605;BME280;11469;49.024;8.246;2023-02-03T07:31:29;101719.34;;;6.33;100.00
22605;BME280;11469;49.024;8.246;2023-02-03T07:33:55;101726.28;;;6.36;100.00
22605;BME280;11469;49.024;8.246;2023-02-03T07:36:20;101735.97;;;6.38;100.00
22605;BME280;11469;49.024;8.246;2023-02-03T07:38:46;101748.47;;;6.41;100.00
22605;BME280;11469;49.024;8.246;2023-02-03T07:41:11;101742.06;;;6.40;100.00
22605;BME280;11469;49.024;8.246;2023-02-03T07:43:36;101738.38;;;6.45;100.00
22605;BME280;11469;49.024;8.246;2023-02-03T07:46:02;101749.06;;;6.38;100.00
22605;BME280;11469;49.024;8.246;2023-02-03T07:48:27;101752.84;;;6.28;100.00
22605;BME280;11469;49.024;8.246;2023-02-03T07:50:53;101772.03;;;6.29;100.00
22605;BME280;11469;49.024;8.246;2023-02-03T07:53:19;101776.75;;;6.29;100.00
22605;BME280;11469;49.024;8.246;2023-02-03T07:55:44;101770.97;;;6.25;100.00
22605;BME280;11469;49.024;8.246;2023-02-03T07:58:09;101770.50;;;6.18;100.00
22605;BME280;11469;49.024;8.246;2023-02-03T08:00:35;101772.16;;;6.19;100.00
22605;BME280;11469;49.024;8.246;2023-02-03T08:03:00;101783.75;;;6.26;100.00
22605;BME280;11469;49.024;8.246;2023-02-03T08:05:26;101782.69;;;6.22;100.00
22605;BME280;11469;49.024;8.246;2023-02-03T08:07:52;101789.31;;;6.26;100.00
22605;BME280;11469;49.024;8.246;2023-02-03T08:10:17;101779.25;;;6.30;100.00
22605;BME280;11469;49.024;8.246;2023-02-03T08:12:43;101760.59;;;6.31;100.00
22605;BME280;11469;49.024;8.246;2023-02-03T08:15:11;101772.19;;;6.38;100.00
22605;BME280;11469;49.024;8.246;2023-02-03T08:17:37;101765.47;;;6.39;100.00
22605;BME280;11469;49.024;8.246;2023-02-03T08:20:06;101765.47;;;6.39;100.00
22605;BME280;11469;49.024;8.246;2023-02-03T08:22:31;101786.25;;;6.47;100.00
22605;BME280;11469;49.024;8.246;2023-02-03T08:24:57;101787.19;;;6.61;100.00
22605;BME280;11469;49.024;8.246;2023-02-03T08:27:22;101787.47;;;6.59;100.00
22605;BME280;11469;49.024;8.246;2023-02-03T08:29:48;101798.63;;;6.59;100.00
22605;BME280;11469;49.024;8.246;2023-02-03T08:32:17;101792.41;;;6.62;100.00
22605;BME280;11469;49.024;8.246;2023-02-03T08:34:44;101780.38;;;6.67;100.00
22605;BME280;11469;49.024;8.246;2023-02-03T08:37:11;101778.88;;;6.75;100.00
22605;BME280;11469;49.024;8.246;2023-02-03T08:39:37;101781.88;;;6.78;100.00
22605;BME280;11469;49.024;8.246;2023-02-03T08:42:03;101799.19;;;6.75;100.00
22605;BME280;11469;49.024;8.246;2023-02-03T08:44:32;101781.78;;;6.83;100.00
22605;BME280;11469;49.024;8.246;2023-02-03T08:46:58;101777.09;;;6.97;100.00
22605;BME280;11469;49.024;8.246;2023-02-03T08:49:26;101767.75;;;7.07;100.00
22605;BME280;11469;49.024;8.246;2023-02-03T08:51:51;101767.63;;;7.12;100.00
22605;BME280;11469;49.024;8.246;2023-02-03T08:54:17;101762.34;;;7.11;100.00
22605;BME280;11469;49.024;8.246;2023-02-03T08:56:42;101764.84;;;7.12;100.00
22605;BME280;11469;49.024;8.246;2023-02-03T08:59:08;101764.06;;;7.25;100.00
22605;BME280;11469;49.024;8.246;2023-02-03T09:01:33;101764.16;;;7.20;100.00
22605;BME280;11469;49.024;8.246;2023-02-03T09:04:00;101777.47;;;7.23;100.00
22605;BME280;11469;49.024;8.246;2023-02-03T09:06:29;101771.81;;;7.28;100.00
22605;BME280;11469;49.024;8.246;2023-02-03T09:08:55;101777.06;;;7.30;100.00
22605;BME280;11469;49.024;8.246;2023-02-03T09:11:20;101764.47;;;7.32;100.00
22605;BME280;11469;49.024;8.246;2023-02-03T09:13:46;101759.94;;;7.37;100.00
22605;BME280;11469;49.024;8.246;2023-02-03T09:16:14;101778.13;;;7.34;100.00
22605;BME280;11469;49.024;8.246;2023-02-03T09:18:41;101772.28;;;7.17;100.00
22605;BME280;11469;49.024;8.246;2023-02-03T09:21:09;101776.41;;;7.06;100.00
22605;BME280;11469;49.024;8.246;2023-02-03T09:23:38;101777.94;;;6.98;100.00
22605;BME280;11469;49.024;8.246;2023-02-03T09:26:05;101791.13;;;6.92;100.00
22605;BME280;11469;49.024;8.246;2023-02-03T09:28:32;101773.56;;;6.92;100.00
22605;BME280;11469;49.024;8.246;2023-02-03T09:31:01;101770.25;;;6.90;100.00
22605;BME280;11469;49.024;8.246;2023-02-03T09:33:27;101762.41;;;6.92;100.00
22605;BME280;11469;49.024;8.246;2023-02-03T09:35:54;101760.69;;;6.96;100.00
22605;BME280;11469;49.024;8.246;2023-02-03T09:38:19;101765.66;;;7.13;100.00
22605;BME280;11469;49.024;8.246;2023-02-03T09:40:50;101760.66;;;7.28;100.00
22605;BME280;11469;49.024;8.246;2023-02-03T09:45:44;101751.09;;;7.76;100.00
22605;BME280;11469;49.024;8.246;2023-02-03T09:48:13;101748.69;;;7.83;100.00
22605;BME280;11469;49.024;8.246;2023-02-03T09:50:42;101754.50;;;7.86;100.00
22605;BME280;11469;49.024;8.246;2023-02-03T09:53:31;101754.69;;;7.90;100.00
22605;BME280;11469;49.024;8.246;2023-02-03T09:55:59;101757.06;;;7.96;100.00
22605;BME280;11469;49.024;8.246;2023-02-03T09:58:27;101750.78;;;7.91;99.73
22605;BME280;11469;49.024;8.246;2023-02-03T10:00:58;101744.78;;;7.97;99.27
22605;BME280;11469;49.024;8.246;2023-02-03T10:03:31;101745.16;;;8.05;99.12
22605;BME280;11469;49.024;8.246;2023-02-03T10:14:16;101755.19;;;8.06;97.72
22605;BME280;11469;49.024;8.246;2023-02-03T10:22:30;101771.63;;;8.21;97.55
22605;BME280;11469;49.024;8.246;2023-02-03T10:25:04;101764.69;;;8.18;97.46
22605;BME280;11469;49.024;8.246;2023-02-03T10:27:32;101753.50;;;8.18;97.88
22605;BME280;11469;49.024;8.246;2023-02-03T10:32:44;101757.44;;;8.17;97.74
22605;BME280;11469;49.024;8.246;2023-02-03T10:35:13;101748.56;;;8.15;97.72
22605;BME280;11469;49.024;8.246;2023-02-03T10:37:48;101752.78;;;8.13;98.15
22605;BME280;11469;49.024;8.246;2023-02-03T10:40:15;101747.72;;;8.15;98.17
22605;BME280;11469;49.024;8.246;2023-02-03T10:42:42;101743.25;;;8.27;97.46
22605;BME280;11469;49.024;8.246;2023-02-03T10:45:30;101754.94;;;8.29;97.69
22605;BME280;11469;49.024;8.246;2023-02-03T10:47:58;101749.88;;;8.31;97.33
22605;BME280;11469;49.024;8.246;2023-02-03T10:50:26;101734.47;;;8.34;97.08
22605;BME280;11469;49.024;8.246;2023-02-03T10:53:31;101735.72;;;8.42;96.35
22605;BME280;11469;49.024;8.246;2023-02-03T10:56:09;101720.50;;;8.34;96.00
22605;BME280;11469;49.024;8.246;2023-02-03T10:58:37;101729.50;;;8.45;96.68
22605;BME280;11469;49.024;8.246;2023-02-03T11:01:08;101725.91;;;8.53;96.15
22605;BME280;11469;49.024;8.246;2023-02-03T11:03:33;101738.75;;;8.54;96.42
22605;BME280;11469;49.024;8.246;2023-02-03T11:06:06;101735.44;;;8.52;96.16
22605;BME280;11469;49.024;8.246;2023-02-03T11:08:34;101739.31;;;8.42;96.12
22605;BME280;11469;49.024;8.246;2023-02-03T11:11:08;101737.56;;;8.46;96.96
22605;BME280;11469;49.024;8.246;2023-02-03T11:13:34;101727.53;;;8.45;97.27
22605;BME280;11469;49.024;8.246;2023-02-03T11:18:37;101722.69;;;8.37;97.21
22605;BME280;11469;49.024;8.246;2023-02-03T11:21:13;101710.56;;;8.42;97.88
22605;BME280;11469;49.024;8.246;2023-02-03T11:23:54;101705.59;;;8.39;97.38
22605;BME280;11469;49.024;8.246;2023-02-03T11:26:24;101708.59;;;8.42;98.00
22605;BME280;11469;49.024;8.246;2023-02-03T11:28:54;101692.03;;;8.46;98.02
22605;BME280;11469;49.024;8.246;2023-02-03T11:31:25;101691.63;;;8.61;97.38
22605;BME280;11469;49.024;8.246;2023-02-03T11:33:57;101690.88;;;8.69;96.48
22605;BME280;11469;49.024;8.246;2023-02-03T11:36:25;101681.53;;;8.74;95.15
22605;BME280;11469;49.024;8.246;2023-02-03T11:38:51;101661.44;;;8.72;95.87
22605;BME280;11469;49.024;8.246;2023-02-03T11:41:18;101667.34;;;8.70;95.02
22605;BME280;11469;49.024;8.246;2023-02-03T11:43:45;101660.31;;;8.73;94.04
22605;BME280;11469;49.024;8.246;2023-02-03T11:46:12;101646.84;;;8.75;94.37
22605;BME280;11469;49.024;8.246;2023-02-03T11:49:00;101648.69;;;8.79;94.44
22605;BME280;11469;49.024;8.246;2023-02-03T11:52:07;101666.19;;;8.93;93.76
22605;BME280;11469;49.024;8.246;2023-02-03T11:54:39;101680.84;;;8.99;93.39
22605;BME280;11469;49.024;8.246;2023-02-03T11:57:43;101688.59;;;9.02;93.03
22605;BME280;11469;49.024;8.246;2023-02-03T12:00:40;101671.59;;;8.90;92.25
22605;BME280;11469;49.024;8.246;2023-02-03T12:06:04;101694.81;;;8.99;90.93
22605;BME280;11469;49.024;8.246;2023-02-03T12:08:48;101688.59;;;9.02;91.55
22605;BME280;11469;49.024;8.246;2023-02-03T12:20:02;101681.97;;;9.20;89.89
22605;BME280;11469;49.024;8.246;2023-02-03T12:22:44;101705.22;;;9.29;89.18
22605;BME280;11469;49.024;8.246;2023-02-03T12:25:21;101704.16;;;9.17;89.54
22605;BME280;11469;49.024;8.246;2023-02-03T12:30:48;101720.19;;;9.03;89.98
22605;BME280;11469;49.024;8.246;2023-02-03T12:33:23;101729.41;;;9.03;90.53
22605;BME280;11469;49.024;8.246;2023-02-03T12:36:01;101728.88;;;8.92;90.76
22605;BME280;11469;49.024;8.246;2023-02-03T12:41:33;101735.91;;;8.90;90.91
22605;BME280;11469;49.024;8.246;2023-02-03T12:44:04;101721.88;;;8.81;91.39
22605;BME280;11469;49.024;8.246;2023-02-03T12:51:50;101692.50;;;8.70;92.06
22605;BME280;11469;49.024;8.246;2023-02-03T12:54:37;101639.91;;;8.72;92.30
22605;BME280;11469;49.024;8.246;2023-02-03T12:57:16;101635.84;;;8.78;92.42
22605;BME280;11469;49.024;8.246;2023-02-03T12:59:51;101640.75;;;8.73;92.47
22605;BME280;11469;49.024;8.246;2023-02-03T13:02:20;101643.22;;;8.74;92.51
22605;BME280;11469;49.024;8.246;2023-02-03T13:04:53;101634.31;;;8.72;92.95
22605;BME280;11469;49.024;8.246;2023-02-03T13:07:26;101645.19;;;8.74;93.07
22605;BME280;11469;49.024;8.246;2023-02-03T13:09:58;101648.50;;;8.76;93.36
22605;BME280;11469;49.024;8.246;2023-02-03T13:12:35;101633.06;;;8.78;93.05
22605;BME280;11469;49.024;8.246;2023-02-03T13:20:29;101645.25;;;8.82;93.19
22605;BME280;11469;49.024;8.246;2023-02-03T13:22:56;101630.94;;;8.84;93.35
22605;BME280;11469;49.024;8.246;2023-02-03T13:31:28;101624.41;;;8.88;94.32
22605;BME280;11469;49.024;8.246;2023-02-03T13:44:04;101600.09;;;8.97;94.82
22605;BME280;11469;49.024;8.246;2023-02-03T13:46:34;101605.66;;;8.89;95.26
22605;BME280;11469;49.024;8.246;2023-02-03T13:49:01;101606.28;;;8.86;95.11
22605;BME280;11469;49.024;8.246;2023-02-03T13:51:31;101612.16;;;8.76;95.94
22605;BME280;11469;49.024;8.246;2023-02-03T13:54:07;101614.31;;;8.79;96.84
22605;BME280;11469;49.024;8.246;2023-02-03T13:56:33;101616.97;;;8.84;96.60
22605;BME280;11469;49.024;8.246;2023-02-03T13:59:25;101621.88;;;8.78;96.21
22605;BME280;11469;49.024;8.246;2023-02-03T14:07:44;101619.16;;;8.64;97.89
22605;BME280;11469;49.024;8.246;2023-02-03T14:12:58;101611.84;;;8.55;98.44
22605;BME280;11469;49.024;8.246;2023-02-03T14:22:56;101619.38;;;8.46;99.62
22605;BME280;11469;49.024;8.246;2023-02-03T14:25:23;101608.19;;;8.46;99.31
22605;BME280;11469;49.024;8.246;2023-02-03T14:28:01;101588.66;;;8.46;100.00
22605;BME280;11469;49.024;8.246;2023-02-03T14:30:28;101601.59;;;8.42;99.93
22605;BME280;11469;49.024;8.246;2023-02-03T14:35:32;101607.50;;;8.40;100.00
22605;BME280;11469;49.024;8.246;2023-02-03T14:40:43;101609.28;;;8.36;100.00
22605;BME280;11469;49.024;8.246;2023-02-03T14:43:33;101620.13;;;8.38;100.00
22605;BME280;11469;49.024;8.246;2023-02-03T14:49:36;101659.75;;;8.40;100.00
22605;BME280;11469;49.024;8.246;2023-02-03T14:52:12;101659.25;;;8.38;100.00
22605;BME280;11469;49.024;8.246;2023-02-03T14:54:57;101657.09;;;8.35;100.00
22605;BME280;11469;49.024;8.246;2023-02-03T14:57:45;101658.22;;;8.34;100.00
22605;BME280;11469;49.024;8.246;2023-02-03T15:05:44;101647.97;;;8.29;100.00
22605;BME280;11469;49.024;8.246;2023-02-03T15:10:58;101643.84;;;8.26;100.00
22605;BME280;11469;49.024;8.246;2023-02-03T15:13:30;101653.16;;;8.22;100.00